createdAt,value
2018-12-17T00:00:26.046Z,972.92
2018-12-17T00:01:26.038Z,972.93
2018-12-17T00:02:26.030Z,972.94
2018-12-17T00:03:26.025Z,972.97
2018-12-17T00:04:26.054Z,972.96
2018-12-17T00:05:26.016Z,972.99
2018-12-17T00:06:26.006Z,973.00
2018-12-17T00:07:26.007Z,973.00
2018-12-17T00:08:31.877Z,972.99
2018-12-17T00:09:26.009Z,973.03
2018-12-17T00:10:25.982Z,973.03
2018-12-17T00:11:25.966Z,973.00
2018-12-17T00:12:25.964Z,973.06
2018-12-17T00:13:25.957Z,973.06
2018-12-17T00:14:25.981Z,973.10
2018-12-17T00:15:25.944Z,973.03
2018-12-17T00:16:25.941Z,973.06
2018-12-17T00:17:25.932Z,973.09
2018-12-17T00:18:25.924Z,973.03
2018-12-17T00:19:25.946Z,973.09
2018-12-17T00:20:25.916Z,973.07
2018-12-17T00:21:25.904Z,973.10
2018-12-17T00:22:25.898Z,973.01
2018-12-17T00:23:25.892Z,973.05
2018-12-17T00:24:25.912Z,973.04
2018-12-17T00:25:25.875Z,973.01
2018-12-17T00:26:25.871Z,973.03
2018-12-17T00:27:25.863Z,972.99
2018-12-17T00:28:25.859Z,973.00
2018-12-17T00:29:25.880Z,972.96
2018-12-17T00:30:25.841Z,972.93
2018-12-17T00:31:25.835Z,972.92
2018-12-17T00:32:25.831Z,972.98
2018-12-17T00:33:25.823Z,972.96
2018-12-17T00:34:25.843Z,973.02
2018-12-17T00:35:25.807Z,973.00
2018-12-17T00:36:25.802Z,973.03
2018-12-17T00:37:25.794Z,973.03
2018-12-17T00:38:25.790Z,973.08
2018-12-17T00:39:25.811Z,973.08
2018-12-17T00:40:25.777Z,973.10
2018-12-17T00:41:25.767Z,973.10
2018-12-17T00:42:25.763Z,973.11
2018-12-17T00:43:25.754Z,973.10
2018-12-17T00:44:25.781Z,973.12
2018-12-17T00:45:25.738Z,973.13
2018-12-17T00:46:25.738Z,973.17
2018-12-17T00:47:25.730Z,973.13
2018-12-17T00:48:25.725Z,973.17
2018-12-17T00:49:25.743Z,973.20
2018-12-17T00:50:25.705Z,973.20
2018-12-17T00:51:25.701Z,973.23
2018-12-17T00:52:25.698Z,973.20
2018-12-17T00:53:25.684Z,973.26
2018-12-17T00:54:25.710Z,973.22
2018-12-17T00:55:25.672Z,973.25
2018-12-17T00:56:25.665Z,973.27
2018-12-17T00:57:25.657Z,973.29
2018-12-17T00:58:25.654Z,973.25
2018-12-17T00:59:25.669Z,973.29
2018-12-17T01:00:25.640Z,973.29
2018-12-17T01:01:25.632Z,973.30
2018-12-17T01:02:25.624Z,973.31
2018-12-17T01:03:25.619Z,973.33
2018-12-17T01:04:25.640Z,973.36
2018-12-17T01:05:25.605Z,973.39
2018-12-17T01:06:25.599Z,973.37
2018-12-17T01:07:25.596Z,973.38
2018-12-17T01:08:25.587Z,973.37
2018-12-17T01:09:25.607Z,973.35
2018-12-17T01:10:25.571Z,973.41
2018-12-17T01:11:25.570Z,973.38
2018-12-17T01:12:25.562Z,973.41
2018-12-17T01:13:25.550Z,973.42
2018-12-17T01:14:25.593Z,973.42
2018-12-17T01:15:25.539Z,973.39
2018-12-17T01:16:26.549Z,973.39
2018-12-17T01:17:25.525Z,973.40
2018-12-17T01:18:25.518Z,973.41
2018-12-17T01:19:25.540Z,973.43
2018-12-17T01:20:25.506Z,973.43
2018-12-17T01:21:25.499Z,973.47
2018-12-17T01:22:25.493Z,973.45
2018-12-17T01:23:25.487Z,973.46
2018-12-17T01:24:25.510Z,973.46
2018-12-17T01:25:25.473Z,973.47
2018-12-17T01:26:25.466Z,973.43
2018-12-17T01:27:25.457Z,973.43
2018-12-17T01:28:25.451Z,973.44
2018-12-17T01:29:25.474Z,973.42
2018-12-17T01:30:25.429Z,973.39
2018-12-17T01:31:25.434Z,973.37
2018-12-17T01:32:25.425Z,973.41
2018-12-17T01:33:25.419Z,973.43
2018-12-17T01:34:25.441Z,973.45
2018-12-17T01:35:25.406Z,973.47
2018-12-17T01:36:25.397Z,973.48
2018-12-17T01:37:25.389Z,973.47
2018-12-17T01:38:25.385Z,973.45
2018-12-17T01:39:25.405Z,973.47
2018-12-17T01:40:25.372Z,973.48
2018-12-17T01:41:25.367Z,973.46
2018-12-17T01:42:25.355Z,973.44
2018-12-17T01:43:25.347Z,973.51
2018-12-17T01:44:25.374Z,973.55
2018-12-17T01:45:25.337Z,973.55
2018-12-17T01:46:25.324Z,973.53
2018-12-17T01:47:25.319Z,973.55
2018-12-17T01:48:25.312Z,973.56
2018-12-17T01:49:25.470Z,973.57
2018-12-17T01:50:25.303Z,973.59
2018-12-17T01:51:25.294Z,973.57
2018-12-17T01:52:25.287Z,973.55
2018-12-17T01:53:25.282Z,973.58
2018-12-17T01:54:25.302Z,973.54
2018-12-17T01:55:25.262Z,973.53
2018-12-17T01:56:25.258Z,973.50
2018-12-17T01:57:25.245Z,973.51
2018-12-17T01:58:29.186Z,973.49
2018-12-17T01:59:25.281Z,973.53
2018-12-17T02:00:25.232Z,973.56
2018-12-17T02:01:25.221Z,973.50
2018-12-17T02:02:25.215Z,973.49
2018-12-17T02:03:25.202Z,973.51
2018-12-17T02:04:25.227Z,973.49
2018-12-17T02:05:25.193Z,973.45
2018-12-17T02:06:25.185Z,973.43
2018-12-17T02:07:25.181Z,973.43
2018-12-17T02:08:25.170Z,973.46
2018-12-17T02:09:25.189Z,973.48
2018-12-17T02:10:25.156Z,973.53
2018-12-17T02:11:25.150Z,973.52
2018-12-17T02:12:25.141Z,973.60
2018-12-17T02:13:25.133Z,973.54
2018-12-17T02:14:25.155Z,973.55
2018-12-17T02:15:25.130Z,973.57
2018-12-17T02:16:25.111Z,973.58
2018-12-17T02:17:25.106Z,973.63
2018-12-17T02:18:25.093Z,973.64
2018-12-17T02:19:25.118Z,973.60
2018-12-17T02:20:25.085Z,973.64
2018-12-17T02:21:25.080Z,973.64
2018-12-17T02:22:25.065Z,973.64
2018-12-17T02:23:25.065Z,973.70
2018-12-17T02:24:25.079Z,973.65
2018-12-17T02:25:25.044Z,973.67
2018-12-17T02:26:25.039Z,973.67
2018-12-17T02:27:25.031Z,973.62
2018-12-17T02:28:25.019Z,973.63
2018-12-17T02:29:25.042Z,973.63
2018-12-17T02:30:25.012Z,973.66
2018-12-17T02:31:25.003Z,973.63
2018-12-17T02:32:24.995Z,973.62
2018-12-17T02:33:24.986Z,973.57
2018-12-17T02:34:25.012Z,973.52
2018-12-17T02:35:25.218Z,973.48
2018-12-17T02:36:24.969Z,973.44
2018-12-17T02:37:24.965Z,973.48
2018-12-17T02:38:24.974Z,973.54
2018-12-17T02:39:24.944Z,973.56
2018-12-17T02:40:24.934Z,973.55
2018-12-17T02:41:24.925Z,973.54
2018-12-17T02:42:24.924Z,973.50
2018-12-17T02:43:24.954Z,973.46
2018-12-17T02:44:24.908Z,973.47
2018-12-17T02:45:24.902Z,973.49
2018-12-17T02:46:24.893Z,973.47
2018-12-17T02:47:24.884Z,973.55
2018-12-17T02:48:24.903Z,973.55
2018-12-17T02:49:24.870Z,973.58
2018-12-17T02:50:24.857Z,973.58
2018-12-17T02:51:24.862Z,973.56
2018-12-17T02:52:24.846Z,973.55
2018-12-17T02:53:24.867Z,973.56
2018-12-17T02:54:24.838Z,973.61
2018-12-17T02:55:24.827Z,973.63
2018-12-17T02:56:24.819Z,973.60
2018-12-17T02:57:24.815Z,973.63
2018-12-17T02:58:24.841Z,973.69
2018-12-17T02:59:24.798Z,973.75
2018-12-17T03:00:24.791Z,973.76
2018-12-17T03:01:24.782Z,973.79
2018-12-17T03:02:24.785Z,973.84
2018-12-17T03:03:24.795Z,973.85
2018-12-17T03:04:24.768Z,973.88
2018-12-17T03:05:24.755Z,973.87
2018-12-17T03:06:24.752Z,973.90
2018-12-17T03:07:24.745Z,973.89
2018-12-17T03:08:24.829Z,973.91
2018-12-17T03:09:24.726Z,973.85
2018-12-17T03:10:24.719Z,973.83
2018-12-17T03:11:24.708Z,973.81
2018-12-17T03:12:24.709Z,973.79
2018-12-17T03:13:24.721Z,973.74
2018-12-17T03:14:24.690Z,973.67
2018-12-17T03:15:24.684Z,973.68
2018-12-17T03:16:24.677Z,973.72
2018-12-17T03:17:24.669Z,973.73
2018-12-17T03:18:24.694Z,973.75
2018-12-17T03:19:24.654Z,973.76
2018-12-17T03:20:24.648Z,973.75
2018-12-17T03:21:24.641Z,973.73
2018-12-17T03:22:24.634Z,973.76
2018-12-17T03:23:24.654Z,973.75
2018-12-17T03:24:24.620Z,973.73
2018-12-17T03:25:24.619Z,973.74
2018-12-17T03:26:24.606Z,973.71
2018-12-17T03:27:24.605Z,973.74
2018-12-17T03:28:24.622Z,973.74
2018-12-17T03:29:24.589Z,973.71
2018-12-17T03:30:24.574Z,973.73
2018-12-17T03:31:24.589Z,973.69
2018-12-17T03:32:24.568Z,973.67
2018-12-17T03:33:24.588Z,973.65
2018-12-17T03:34:24.546Z,973.64
2018-12-17T03:35:24.544Z,973.61
2018-12-17T03:36:24.533Z,973.62
2018-12-17T03:37:24.527Z,973.55
2018-12-17T03:38:24.550Z,973.54
2018-12-17T03:39:24.517Z,973.48
2018-12-17T03:40:24.511Z,973.45
2018-12-17T03:41:24.504Z,973.37
2018-12-17T03:42:24.494Z,973.37
2018-12-17T03:43:24.515Z,973.41
2018-12-17T03:44:24.479Z,973.46
2018-12-17T03:45:24.475Z,973.51
2018-12-17T03:46:24.467Z,973.53
2018-12-17T03:47:24.462Z,973.53
2018-12-17T03:48:24.480Z,973.54
2018-12-17T03:49:24.447Z,973.54
2018-12-17T03:50:24.441Z,973.59
2018-12-17T03:51:24.433Z,973.51
2018-12-17T03:52:24.427Z,973.53
2018-12-17T03:53:24.446Z,973.51
2018-12-17T03:54:24.415Z,973.58
2018-12-17T03:55:24.403Z,973.70
2018-12-17T03:56:24.399Z,973.73
2018-12-17T03:57:24.391Z,973.73
2018-12-17T03:58:24.410Z,973.76
2018-12-17T03:59:24.416Z,973.78
2018-12-17T04:00:24.373Z,973.84
2018-12-17T04:01:24.357Z,973.88
2018-12-17T04:02:24.359Z,973.91
2018-12-17T04:03:24.379Z,973.90
2018-12-17T04:04:24.349Z,973.89
2018-12-17T04:05:24.334Z,973.94
2018-12-17T04:06:24.329Z,973.94
2018-12-17T04:07:24.318Z,973.96
2018-12-17T04:08:24.340Z,973.95
2018-12-17T04:09:24.304Z,973.95
2018-12-17T04:10:24.302Z,973.94
2018-12-17T04:11:24.301Z,973.96
2018-12-17T04:12:24.289Z,973.99
2018-12-17T04:13:24.318Z,974.02
2018-12-17T04:14:24.272Z,974.04
2018-12-17T04:15:24.273Z,974.09
2018-12-17T04:16:24.260Z,974.09
2018-12-17T04:17:24.288Z,974.11
2018-12-17T04:18:24.244Z,974.11
2018-12-17T04:19:24.240Z,974.14
2018-12-17T04:20:24.232Z,974.10
2018-12-17T04:21:24.228Z,974.11
2018-12-17T04:22:24.260Z,974.11
2018-12-17T04:23:24.241Z,974.08
2018-12-17T04:24:24.207Z,974.12
2018-12-17T04:25:24.198Z,974.12
2018-12-17T04:26:24.190Z,974.17
2018-12-17T04:27:24.186Z,974.18
2018-12-17T04:28:24.208Z,974.21
2018-12-17T04:29:24.170Z,974.18
2018-12-17T04:30:24.168Z,974.14
2018-12-17T04:31:24.162Z,974.19
2018-12-17T04:32:24.152Z,974.19
2018-12-17T04:33:24.174Z,974.20
2018-12-17T04:34:24.139Z,974.19
2018-12-17T04:35:24.131Z,974.19
2018-12-17T04:36:24.129Z,974.20
2018-12-17T04:37:24.145Z,974.22
2018-12-17T04:38:24.111Z,974.19
2018-12-17T04:39:24.110Z,974.21
2018-12-17T04:40:24.102Z,974.22
2018-12-17T04:41:24.093Z,974.23
2018-12-17T04:42:24.114Z,974.23
2018-12-17T04:43:24.077Z,974.26
2018-12-17T04:44:24.073Z,974.28
2018-12-17T04:45:24.068Z,974.25
2018-12-17T04:46:24.059Z,974.28
2018-12-17T04:47:24.083Z,974.29
2018-12-17T04:48:24.045Z,974.27
2018-12-17T04:49:24.042Z,974.24
2018-12-17T04:50:24.033Z,974.24
2018-12-17T04:51:24.028Z,974.23
2018-12-17T04:52:24.045Z,974.24
2018-12-17T04:53:24.016Z,974.22
2018-12-17T04:54:24.001Z,974.18
2018-12-17T04:55:24.009Z,974.16
2018-12-17T04:56:23.992Z,974.16
2018-12-17T04:57:24.021Z,974.15
2018-12-17T04:58:23.985Z,974.18
2018-12-17T04:59:23.968Z,974.21
2018-12-17T05:00:23.975Z,974.22
2018-12-17T05:01:23.988Z,974.25
2018-12-17T05:02:23.956Z,974.26
2018-12-17T05:03:23.943Z,974.23
2018-12-17T05:04:23.936Z,974.19
2018-12-17T05:05:23.926Z,974.22
2018-12-17T05:06:23.947Z,974.23
2018-12-17T05:07:23.939Z,974.20
2018-12-17T05:08:23.910Z,974.22
2018-12-17T05:09:23.901Z,974.22
2018-12-17T05:10:23.907Z,974.25
2018-12-17T05:11:23.883Z,974.20
2018-12-17T05:12:23.905Z,974.21
2018-12-17T05:13:23.866Z,974.21
2018-12-17T05:14:23.865Z,974.18
2018-12-17T05:15:23.851Z,974.22
2018-12-17T05:16:23.846Z,974.19
2018-12-17T05:17:23.864Z,974.18
2018-12-17T05:18:23.830Z,974.15
2018-12-17T05:19:23.838Z,974.21
2018-12-17T05:20:23.817Z,974.27
2018-12-17T05:21:23.810Z,974.29
2018-12-17T05:22:23.832Z,974.32
2018-12-17T05:23:23.795Z,974.37
2018-12-17T05:24:23.785Z,974.45
2018-12-17T05:25:23.777Z,974.51
2018-12-17T05:26:23.802Z,974.57
2018-12-17T05:27:23.764Z,974.61
2018-12-17T05:28:23.755Z,974.64
2018-12-17T05:29:23.749Z,974.69
2018-12-17T05:30:23.741Z,974.67
2018-12-17T05:31:23.765Z,974.71
2018-12-17T05:32:23.754Z,974.76
2018-12-17T05:33:23.721Z,974.73
2018-12-17T05:34:23.713Z,974.74
2018-12-17T05:35:23.727Z,974.70
2018-12-17T05:36:23.764Z,974.76
2018-12-17T05:37:23.720Z,974.75
2018-12-17T05:38:23.686Z,974.84
2018-12-17T05:39:23.680Z,974.85
2018-12-17T05:40:23.676Z,974.92
2018-12-17T05:41:23.664Z,974.83
2018-12-17T05:42:23.689Z,974.85
2018-12-17T05:43:23.648Z,974.85
2018-12-17T05:44:23.650Z,974.85
2018-12-17T05:45:23.632Z,974.84
2018-12-17T05:46:23.657Z,974.78
2018-12-17T05:47:23.622Z,974.78
2018-12-17T05:48:23.646Z,974.74
2018-12-17T05:49:23.614Z,974.78
2018-12-17T05:50:23.612Z,974.76
2018-12-17T05:51:23.594Z,974.77
2018-12-17T05:52:23.617Z,974.73
2018-12-17T05:53:23.583Z,974.78
2018-12-17T05:54:23.570Z,974.72
2018-12-17T05:55:23.563Z,974.72
2018-12-17T05:56:23.586Z,974.70
2018-12-17T05:57:23.549Z,974.72
2018-12-17T05:58:23.541Z,974.68
2018-12-17T05:59:28.566Z,974.68
2018-12-17T06:00:23.530Z,974.73
2018-12-17T06:01:23.550Z,974.68
2018-12-17T06:02:23.515Z,974.66
2018-12-17T06:03:23.506Z,974.65
2018-12-17T06:04:23.494Z,974.66
2018-12-17T06:05:23.489Z,974.75
2018-12-17T06:06:23.513Z,974.82
2018-12-17T06:07:23.476Z,974.91
2018-12-17T06:08:23.468Z,974.91
2018-12-17T06:09:23.459Z,974.98
2018-12-17T06:10:23.454Z,974.98
2018-12-17T06:11:23.470Z,974.98
2018-12-17T06:12:23.439Z,974.97
2018-12-17T06:13:23.432Z,974.97
2018-12-17T06:14:23.425Z,974.94
2018-12-17T06:15:23.417Z,974.94
2018-12-17T06:16:23.439Z,974.92
2018-12-17T06:17:23.399Z,974.96
2018-12-17T06:18:23.403Z,975.04
2018-12-17T06:19:23.388Z,975.10
2018-12-17T06:20:23.383Z,975.12
2018-12-17T06:21:23.408Z,975.18
2018-12-17T06:22:23.365Z,975.21
2018-12-17T06:23:23.358Z,975.24
2018-12-17T06:24:23.373Z,975.34
2018-12-17T06:25:24.108Z,975.38
2018-12-17T06:26:23.375Z,975.41
2018-12-17T06:27:23.396Z,975.49
2018-12-17T06:28:23.371Z,975.48
2018-12-17T06:29:23.396Z,975.46
2018-12-17T06:30:23.303Z,975.47
2018-12-17T06:31:23.329Z,975.49
2018-12-17T06:32:23.286Z,975.48
2018-12-17T06:33:23.284Z,975.55
2018-12-17T06:34:23.302Z,975.50
2018-12-17T06:35:23.274Z,975.52
2018-12-17T06:36:23.287Z,975.49
2018-12-17T06:37:23.260Z,975.54
2018-12-17T06:38:23.247Z,975.54
2018-12-17T06:39:23.242Z,975.53
2018-12-17T06:40:23.234Z,975.54
2018-12-17T06:41:23.261Z,975.55
2018-12-17T06:42:23.218Z,975.57
2018-12-17T06:43:23.215Z,975.60
2018-12-17T06:44:23.206Z,975.65
2018-12-17T06:45:23.198Z,975.70
2018-12-17T06:46:23.224Z,975.74
2018-12-17T06:47:23.188Z,975.78
2018-12-17T06:48:23.181Z,975.80
2018-12-17T06:49:23.174Z,975.83
2018-12-17T06:50:23.167Z,975.83
2018-12-17T06:51:23.189Z,975.81
2018-12-17T06:52:23.159Z,975.89
2018-12-17T06:53:23.163Z,975.95
2018-12-17T06:54:23.127Z,975.95
2018-12-17T06:55:23.160Z,975.91
2018-12-17T06:56:23.128Z,975.93
2018-12-17T06:57:23.125Z,975.96
2018-12-17T06:58:23.110Z,976.02
2018-12-17T06:59:23.128Z,975.98
2018-12-17T07:00:23.103Z,975.97
2018-12-17T07:01:23.118Z,975.97
2018-12-17T07:02:23.090Z,976.03
2018-12-17T07:03:23.079Z,976.01
2018-12-17T07:04:23.076Z,976.04
2018-12-17T07:05:23.068Z,976.04
2018-12-17T07:06:23.171Z,976.03
2018-12-17T07:07:23.057Z,976.08
2018-12-17T07:08:23.052Z,976.08
2018-12-17T07:09:23.072Z,976.05
2018-12-17T07:10:23.039Z,976.13
2018-12-17T07:11:23.036Z,976.18
2018-12-17T07:12:23.052Z,976.17
2018-12-17T07:13:23.020Z,976.19
2018-12-17T07:14:23.011Z,976.18
2018-12-17T07:15:23.007Z,976.26
2018-12-17T07:16:23.026Z,976.27
2018-12-17T07:17:22.995Z,976.23
2018-12-17T07:18:22.997Z,976.24
2018-12-17T07:19:22.985Z,976.27
2018-12-17T07:20:22.974Z,976.29
2018-12-17T07:21:23.000Z,976.29
2018-12-17T07:22:22.964Z,976.35
2018-12-17T07:23:22.958Z,976.39
2018-12-17T07:24:22.951Z,976.40
2018-12-17T07:25:22.951Z,976.39
2018-12-17T07:26:22.966Z,976.47
2018-12-17T07:27:22.938Z,976.42
2018-12-17T07:28:22.927Z,976.45
2018-12-17T07:29:22.953Z,976.47
2018-12-17T07:30:22.911Z,976.52
2018-12-17T07:31:22.910Z,976.58
2018-12-17T07:32:22.930Z,976.63
2018-12-17T07:33:22.900Z,976.63
2018-12-17T07:34:22.889Z,976.63
2018-12-17T07:35:22.889Z,976.65
2018-12-17T07:36:22.886Z,976.67
2018-12-17T07:37:22.902Z,976.66
2018-12-17T07:38:22.870Z,976.66
2018-12-17T07:39:22.865Z,976.68
2018-12-17T07:40:22.857Z,976.73
2018-12-17T07:41:22.848Z,976.70
2018-12-17T07:42:22.872Z,976.70
2018-12-17T07:43:22.840Z,976.70
2018-12-17T07:44:22.837Z,976.77
2018-12-17T07:45:22.825Z,976.78
2018-12-17T07:46:22.829Z,976.78
2018-12-17T07:47:22.847Z,976.81
2018-12-17T07:48:22.812Z,976.87
2018-12-17T07:49:22.804Z,976.94
2018-12-17T07:50:22.803Z,976.92
2018-12-17T07:51:22.797Z,976.95
2018-12-17T07:52:22.816Z,976.99
2018-12-17T07:53:22.803Z,977.08
2018-12-17T07:54:22.781Z,976.98
2018-12-17T07:55:22.772Z,977.04
2018-12-17T07:56:22.768Z,976.98
2018-12-17T07:57:22.800Z,977.00
2018-12-17T07:58:22.757Z,977.00
2018-12-17T07:59:22.763Z,977.05
2018-12-17T08:00:22.749Z,977.04
2018-12-17T08:01:22.744Z,977.12
2018-12-17T08:02:22.764Z,977.14
2018-12-17T08:03:22.733Z,977.22
2018-12-17T08:04:22.727Z,977.21
2018-12-17T08:05:22.724Z,977.20
2018-12-17T08:06:22.715Z,977.22
2018-12-17T08:07:22.736Z,977.20
2018-12-17T08:08:22.706Z,977.27
2018-12-17T08:09:22.806Z,977.33
2018-12-17T08:10:22.699Z,977.35
2018-12-17T08:11:22.690Z,977.31
2018-12-17T08:12:22.716Z,977.36
2018-12-17T08:13:22.682Z,977.36
2018-12-17T08:14:22.676Z,977.41
2018-12-17T08:15:22.722Z,977.42
2018-12-17T08:16:22.670Z,977.43
2018-12-17T08:17:22.694Z,977.45
2018-12-17T08:18:22.658Z,977.49
2018-12-17T08:19:22.656Z,977.50
2018-12-17T08:20:22.650Z,977.48
2018-12-17T08:21:22.642Z,977.53
2018-12-17T08:22:22.674Z,977.50
2018-12-17T08:23:22.639Z,977.50
2018-12-17T08:24:22.629Z,977.49
2018-12-17T08:25:22.625Z,977.48
2018-12-17T08:26:22.621Z,977.46
2018-12-17T08:27:22.641Z,977.50
2018-12-17T08:28:22.613Z,977.50
2018-12-17T08:29:23.538Z,977.48
2018-12-17T08:30:22.597Z,977.51
2018-12-17T08:31:22.598Z,977.51
2018-12-17T08:32:22.619Z,977.50
2018-12-17T08:33:22.584Z,977.53
2018-12-17T08:34:22.580Z,977.55
2018-12-17T08:35:22.577Z,977.61
2018-12-17T08:36:22.573Z,977.59
2018-12-17T08:37:22.601Z,977.68
2018-12-17T08:38:22.561Z,977.67
2018-12-17T08:39:22.553Z,977.69
2018-12-17T08:40:22.557Z,977.72
2018-12-17T08:41:22.573Z,977.67
2018-12-17T08:42:22.543Z,977.71
2018-12-17T08:43:22.535Z,977.71
2018-12-17T08:44:22.536Z,977.73
2018-12-17T08:45:22.523Z,977.74
2018-12-17T08:46:22.552Z,977.75
2018-12-17T08:47:22.516Z,977.82
2018-12-17T08:48:22.508Z,977.88
2018-12-17T08:49:22.505Z,977.84
2018-12-17T08:50:22.502Z,977.86
2018-12-17T08:51:22.529Z,977.88
2018-12-17T08:52:22.492Z,977.89
2018-12-17T08:53:22.487Z,977.90
2018-12-17T08:54:22.483Z,977.88
2018-12-17T08:55:22.502Z,977.92
2018-12-17T08:56:22.473Z,977.90
2018-12-17T08:57:22.494Z,977.97
2018-12-17T08:58:22.467Z,978.00
2018-12-17T08:59:22.459Z,977.99
2018-12-17T09:00:22.451Z,978.05
2018-12-17T09:01:22.451Z,978.00
2018-12-17T09:02:22.467Z,978.02
2018-12-17T09:03:22.437Z,978.03
2018-12-17T09:04:22.436Z,978.07
2018-12-17T09:05:22.426Z,978.10
2018-12-17T09:06:22.424Z,978.12
2018-12-17T09:07:22.449Z,978.09
2018-12-17T09:08:22.447Z,978.18
2018-12-17T09:09:22.493Z,978.18
2018-12-17T09:10:22.402Z,978.18
2018-12-17T09:11:22.397Z,978.20
2018-12-17T09:12:22.393Z,978.28
2018-12-17T09:13:22.421Z,978.27
2018-12-17T09:14:22.386Z,978.30
2018-12-17T09:15:22.379Z,978.29
2018-12-17T09:16:22.378Z,978.34
2018-12-17T09:17:22.371Z,978.35
2018-12-17T09:18:22.399Z,978.38
2018-12-17T09:19:22.368Z,978.41
2018-12-17T09:20:22.364Z,978.39
2018-12-17T09:21:22.357Z,978.38
2018-12-17T09:22:22.352Z,978.43
2018-12-17T09:23:22.382Z,978.53
2018-12-17T09:24:22.347Z,978.56
2018-12-17T09:25:22.343Z,978.61
2018-12-17T09:26:22.340Z,978.65
2018-12-17T09:27:22.340Z,978.66
2018-12-17T09:28:22.363Z,978.70
2018-12-17T09:29:22.327Z,978.73
2018-12-17T09:30:22.324Z,978.72
2018-12-17T09:31:22.320Z,978.71
2018-12-17T09:32:22.356Z,978.71
2018-12-17T09:33:22.350Z,978.72
2018-12-17T09:34:22.311Z,978.74
2018-12-17T09:35:22.317Z,978.69
2018-12-17T09:36:22.324Z,978.71
2018-12-17T09:37:22.303Z,978.68
2018-12-17T09:38:22.334Z,978.71
2018-12-17T09:39:22.299Z,978.71
2018-12-17T09:40:22.300Z,978.68
2018-12-17T09:41:22.291Z,978.66
2018-12-17T09:42:22.287Z,978.67
2018-12-17T09:43:22.316Z,978.69
2018-12-17T09:44:22.284Z,978.67
2018-12-17T09:45:22.278Z,978.69
2018-12-17T09:46:22.281Z,978.68
2018-12-17T09:47:22.276Z,978.69
2018-12-17T09:48:22.299Z,978.68
2018-12-17T09:49:22.271Z,978.77
2018-12-17T09:50:22.307Z,978.80
2018-12-17T09:51:22.265Z,978.83
2018-12-17T09:52:22.261Z,978.84
2018-12-17T09:53:22.289Z,978.90
2018-12-17T09:54:22.255Z,978.86
2018-12-17T09:55:22.255Z,978.84
2018-12-17T09:56:22.246Z,978.82
2018-12-17T09:57:22.251Z,978.81
2018-12-17T09:58:22.274Z,978.92
2018-12-17T09:59:22.246Z,978.98
2018-12-17T10:00:25.463Z,979.02
2018-12-17T10:01:22.262Z,979.07
2018-12-17T10:02:22.268Z,979.15
2018-12-17T10:03:22.287Z,979.17
2018-12-17T10:04:22.283Z,979.24
2018-12-17T10:05:22.263Z,979.18
2018-12-17T10:06:22.243Z,979.17
2018-12-17T10:07:22.236Z,979.21
2018-12-17T10:08:22.269Z,979.14
2018-12-17T10:09:22.248Z,979.15
2018-12-17T10:10:22.246Z,979.14
2018-12-17T10:11:22.258Z,979.17
2018-12-17T10:12:22.245Z,979.13
2018-12-17T10:13:22.276Z,979.07
2018-12-17T10:14:22.254Z,979.07
2018-12-17T10:15:22.252Z,979.10
2018-12-17T10:16:22.251Z,979.02
2018-12-17T10:17:22.256Z,978.97
2018-12-17T10:18:22.280Z,979.00
2018-12-17T10:19:22.261Z,978.97
2018-12-17T10:20:22.268Z,978.98
2018-12-17T10:21:22.263Z,978.93
2018-12-17T10:22:22.260Z,978.95
2018-12-17T10:23:22.290Z,978.93
2018-12-17T10:24:22.267Z,978.93
2018-12-17T10:25:22.271Z,978.92
2018-12-17T10:26:22.268Z,979.01
2018-12-17T10:27:22.268Z,979.10
2018-12-17T10:28:22.420Z,978.99
2018-12-17T10:29:22.270Z,979.00
2018-12-17T10:30:22.271Z,979.07
2018-12-17T10:31:22.277Z,978.96
2018-12-17T10:32:22.271Z,978.93
2018-12-17T10:33:22.300Z,978.93
2018-12-17T10:34:22.298Z,978.94
2018-12-17T10:35:22.270Z,978.93
2018-12-17T10:36:22.302Z,978.93
2018-12-17T10:37:22.304Z,978.98
2018-12-17T10:38:45.844Z,978.99
2018-12-17T10:39:22.265Z,978.93
2018-12-17T10:40:22.297Z,978.97
2018-12-17T10:41:22.300Z,978.95
2018-12-17T10:42:22.269Z,979.03
2018-12-17T10:43:22.288Z,979.02
2018-12-17T10:44:22.286Z,979.06
2018-12-17T10:45:22.261Z,978.93
2018-12-17T10:46:22.282Z,978.87
2018-12-17T10:47:22.275Z,978.75
2018-12-17T10:48:22.290Z,978.78
2018-12-17T10:49:22.257Z,978.78
2018-12-17T10:50:22.254Z,978.77
2018-12-17T10:51:22.257Z,978.86
2018-12-17T10:52:22.269Z,978.79
2018-12-17T10:53:22.280Z,978.76
2018-12-17T10:54:22.257Z,978.78
2018-12-17T10:55:22.252Z,978.70
2018-12-17T10:56:22.249Z,978.71
2018-12-17T10:57:22.248Z,978.73
2018-12-17T10:58:22.266Z,978.85
2018-12-17T10:59:22.244Z,978.80
2018-12-17T11:00:22.231Z,978.79
2018-12-17T11:01:22.245Z,978.79
2018-12-17T11:02:22.251Z,978.80
2018-12-17T11:03:22.307Z,978.81
2018-12-17T11:04:22.241Z,978.84
2018-12-17T11:05:22.238Z,978.83
2018-12-17T11:06:22.228Z,978.83
2018-12-17T11:07:22.231Z,978.81
2018-12-17T11:08:22.262Z,978.78
2018-12-17T11:09:22.222Z,978.81
2018-12-17T11:10:22.227Z,978.87
2018-12-17T11:11:22.228Z,978.89
2018-12-17T11:12:22.221Z,978.80
2018-12-17T11:13:22.252Z,978.90
2018-12-17T11:14:22.227Z,978.94
2018-12-17T11:15:22.216Z,978.97
2018-12-17T11:16:22.219Z,979.04
2018-12-17T11:17:22.244Z,979.01
2018-12-17T11:18:22.216Z,978.95
2018-12-17T11:19:22.255Z,978.95
2018-12-17T11:20:22.213Z,978.91
2018-12-17T11:21:22.211Z,978.96
2018-12-17T11:22:22.210Z,978.97
2018-12-17T11:23:22.208Z,978.99
2018-12-17T11:24:22.239Z,978.93
2018-12-17T11:25:22.213Z,978.97
2018-12-17T11:26:22.210Z,979.03
2018-12-17T11:27:22.206Z,979.09
2018-12-17T11:28:22.210Z,979.05
2018-12-17T11:29:22.242Z,979.04
2018-12-17T11:30:22.982Z,979.11
2018-12-17T11:31:22.210Z,978.98
2018-12-17T11:32:22.213Z,979.00
2018-12-17T11:33:22.212Z,979.00
2018-12-17T11:34:22.242Z,978.95
2018-12-17T11:35:22.215Z,978.93
2018-12-17T11:36:22.214Z,978.87
2018-12-17T11:37:22.215Z,978.86
2018-12-17T11:38:22.205Z,978.82
2018-12-17T11:39:22.242Z,978.76
2018-12-17T11:40:22.214Z,978.71
2018-12-17T11:41:22.219Z,978.73
2018-12-17T11:42:22.210Z,978.74
2018-12-17T11:43:22.240Z,978.70
2018-12-17T11:44:22.210Z,978.71
2018-12-17T11:45:22.205Z,979.07
2018-12-17T11:46:22.208Z,979.04
2018-12-17T11:47:22.206Z,978.83
2018-12-17T11:48:22.229Z,978.79
2018-12-17T11:49:22.203Z,978.82
2018-12-17T11:50:22.203Z,978.68
2018-12-17T11:51:22.197Z,978.65
2018-12-17T11:52:22.198Z,978.62
2018-12-17T11:53:22.217Z,978.58
2018-12-17T11:54:22.193Z,978.50
2018-12-17T11:55:22.192Z,978.52
2018-12-17T11:56:22.184Z,978.47
2018-12-17T11:57:22.188Z,978.49
2018-12-17T11:58:22.220Z,978.46
2018-12-17T11:59:22.184Z,978.47
2018-12-17T12:00:22.184Z,978.41
2018-12-17T12:01:22.180Z,978.38
2018-12-17T12:02:22.173Z,978.41
2018-12-17T12:03:22.204Z,978.44
2018-12-17T12:04:22.175Z,978.43
2018-12-17T12:05:22.168Z,978.40
2018-12-17T12:06:22.169Z,978.44
2018-12-17T12:07:22.165Z,978.46
2018-12-17T12:08:22.192Z,978.45
2018-12-17T12:09:22.168Z,978.48
2018-12-17T12:10:22.156Z,978.52
2018-12-17T12:11:22.152Z,978.46
2018-12-17T12:12:22.181Z,978.41
2018-12-17T12:13:22.151Z,978.31
2018-12-17T12:14:22.176Z,978.35
2018-12-17T12:15:22.146Z,978.38
2018-12-17T12:16:22.183Z,978.32
2018-12-17T12:17:22.139Z,978.29
2018-12-17T12:18:22.165Z,978.30
2018-12-17T12:19:22.132Z,978.34
2018-12-17T12:20:22.131Z,978.38
2018-12-17T12:21:22.179Z,978.35
2018-12-17T12:22:22.128Z,978.35
2018-12-17T12:23:22.153Z,978.34
2018-12-17T12:24:22.120Z,978.34
2018-12-17T12:25:22.120Z,978.30
2018-12-17T12:26:22.111Z,978.32
2018-12-17T12:27:22.111Z,978.35
2018-12-17T12:28:22.136Z,978.32